Time;durP1;ratioP1;P1;durP2;ratioP2;P2;SDS_P1;SDS_P2;PMS_P1;PMS_P2;Temp;Humidity;BMP_temperature;BMP_pressure;BME280_temperature;BME280_humidity;BME280_pressure;Samples;Min_cycle;Max_cycle;Signal;HPM_P1;HPM_P2
2022/01/15 00:00:42;;;;;;;29.93;15.07;;;;;;;;;;4758667;30;20586;-90
2022/01/15 00:03:46;;;;;;;31.10;16.60;;;;;;;;;;4742342;30;20617;-92
2022/01/15 00:06:50;;;;;;;27.47;15.40;;;;;;;;;;4742454;30;20559;-89
2022/01/15 00:09:55;;;;;;;25.23;14.77;;;;;;;;;;4742183;30;20559;-89
2022/01/15 00:13:02;;;;;;;24.93;14.83;;;;;;;;;;4742337;30;20599;-90
2022/01/15 00:16:24;;;;;;;25.67;14.63;;;;;;;;;;4762389;30;20627;-90
2022/01/15 00:19:44;;;;;;;26.97;14.70;;;;;;;;;;4752314;30;20564;-91
2022/01/15 00:22:51;;;;;;;28.83;15.47;;;;;;;;;;4752442;30;20642;-90
2022/01/15 00:25:59;;;;;;;27.50;16.33;;;;;;;;;;4724315;30;20576;-89
2022/01/15 00:29:04;;;;;;;30.37;17.10;;;;;;;;;;4746875;30;20578;-89
2022/01/15 00:32:10;;;;;;;37.27;18.30;;;;;;;;;;4741562;30;20650;-89
2022/01/15 00:36:05;;;;;;;29.07;15.90;;;;;;;;;;4768141;30;21202;-89
2022/01/15 00:39:10;;;;;;;29.47;16.00;;;;;;;;;;4741603;30;20580;-89
2022/01/15 01:47:04;;;;;;;26.27;14.50;;;;;;;;;;4787360;30;20675;-92
2022/01/15 01:50:30;;;;;;;25.37;14.10;;;;;;;;;;4758449;30;20556;-91
2022/01/15 01:53:35;;;;;;;28.27;16.23;;;;;;;;;;4750305;30;20568;-90
2022/01/15 01:56:41;;;;;;;33.27;15.23;;;;;;;;;;4740372;30;20611;-90
2022/01/15 01:59:47;;;;;;;24.77;14.50;;;;;;;;;;4742688;30;20632;-90
2022/01/15 02:02:55;;;;;;;28.83;15.50;;;;;;;;;;4742393;30;20647;-90
2022/01/15 02:05:59;;;;;;;25.57;15.47;;;;;;;;;;4722959;30;20564;-90
2022/01/15 02:09:07;;;;;;;29.47;15.33;;;;;;;;;;4722567;30;20585;-90
2022/01/15 02:12:13;;;;;;;28.83;15.90;;;;;;;;;;4732972;30;21243;-90
2022/01/15 02:15:25;;;;;;;29.20;14.90;;;;;;;;;;4742788;30;21148;-90
2022/01/15 02:18:36;;;;;;;29.60;14.70;;;;;;;;;;4742515;30;21128;-90
2022/01/15 02:24:58;;;;;;;24.33;14.80;;;;;;;;;;4752499;30;20561;-90
2022/01/15 02:28:03;;;;;;;24.63;14.37;;;;;;;;;;4732695;30;20560;-90
2022/01/15 02:31:17;;;;;;;24.33;14.50;;;;;;;;;;4752479;30;20648;-90
2022/01/15 02:34:23;;;;;;;26.37;14.27;;;;;;;;;;4732547;30;20556;-90
2022/01/15 02:37:36;;;;;;;26.40;14.27;;;;;;;;;;4742204;30;20616;-89
2022/01/15 02:40:43;;;;;;;27.67;15.27;;;;;;;;;;4742439;30;20557;-90
2022/01/15 02:43:52;;;;;;;24.57;14.67;;;;;;;;;;4742082;30;20577;-91
2022/01/15 02:50:09;;;;;;;26.77;14.57;;;;;;;;;;4732677;30;20627;-91
2022/01/15 02:53:16;;;;;;;25.43;15.00;;;;;;;;;;4745903;30;20616;-91
2022/01/15 02:56:34;;;;;;;28.03;14.33;;;;;;;;;;4745374;30;20992;-91
2022/01/15 02:59:45;;;;;;;27.27;14.80;;;;;;;;;;4735225;30;20577;-91
2022/01/15 03:02:54;;;;;;;29.20;13.90;;;;;;;;;;4745252;30;20651;-91
2022/01/15 03:06:04;;;;;;;27.60;15.37;;;;;;;;;;4745779;30;20914;-91
2022/01/15 03:09:17;;;;;;;27.20;13.63;;;;;;;;;;4745344;30;20615;-91
2022/01/15 03:12:22;;;;;;;29.50;15.77;;;;;;;;;;4745307;30;21013;-91
2022/01/15 03:15:54;;;;;;;26.67;15.17;;;;;;;;;;4745225;30;20635;-90
2022/01/15 03:19:19;;;;;;;26.10;15.07;;;;;;;;;;4745329;30;20942;-91
2022/01/15 03:22:23;;;;;;;29.60;15.80;;;;;;;;;;4735107;30;20635;-91
2022/01/15 03:25:28;;;;;;;26.03;15.20;;;;;;;;;;4725069;30;20619;-91
2022/01/15 03:28:35;;;;;;;25.07;13.33;;;;;;;;;;4731512;30;20638;-90
2022/01/15 03:31:44;;;;;;;24.20;14.00;;;;;;;;;;4755136;30;20671;-91
2022/01/15 03:34:54;;;;;;;26.17;14.03;;;;;;;;;;4742611;30;20587;-90
2022/01/15 03:38:06;;;;;;;28.27;15.10;;;;;;;;;;4763408;30;20631;-91
2022/01/15 03:41:13;;;;;;;26.20;14.77;;;;;;;;;;4762833;30;20654;-91
2022/01/15 03:44:17;;;;;;;26.00;15.10;;;;;;;;;;4752541;30;21115;-91
2022/01/15 03:47:46;;;;;;;25.60;13.53;;;;;;;;;;4742406;30;20548;-90
2022/01/15 03:50:51;;;;;;;24.37;13.97;;;;;;;;;;4752495;30;20552;-90
2022/01/15 03:53:56;;;;;;;29.87;15.83;;;;;;;;;;4742700;30;21112;-91
2022/01/15 03:57:08;;;;;;;26.07;14.83;;;;;;;;;;4744424;30;20615;-91
2022/01/15 04:00:24;;;;;;;27.20;14.93;;;;;;;;;;4742251;30;20627;-91
2022/01/15 04:03:03;;;;;;;29.30;16.47;;;;;;;;;;4768142;25;20698;-91
2022/01/15 04:06:13;;;;;;;28.37;15.80;;;;;;;;;;4771230;30;20961;-91
2022/01/15 04:09:17;;;;;;;26.73;14.93;;;;;;;;;;4749764;30;21140;-91
2022/01/15 04:12:21;;;;;;;34.73;15.97;;;;;;;;;;4751728;30;20643;-91
2022/01/15 04:15:26;;;;;;;27.60;15.37;;;;;;;;;;4761952;30;20579;-91
2022/01/15 04:18:36;;;;;;;28.43;17.00;;;;;;;;;;4751986;30;20639;-91
2022/01/15 04:21:40;;;;;;;28.73;15.07;;;;;;;;;;4741520;30;20646;-90
2022/01/15 04:24:45;;;;;;;27.40;15.03;;;;;;;;;;4761971;30;20583;-91
2022/01/15 04:27:49;;;;;;;28.70;16.13;;;;;;;;;;4762181;30;20556;-91
2022/01/15 04:30:53;;;;;;;30.87;16.07;;;;;;;;;;4741489;30;20670;-91
2022/01/15 04:33:57;;;;;;;28.67;15.47;;;;;;;;;;4751872;30;20556;-91
2022/01/15 04:37:11;;;;;;;26.27;15.77;;;;;;;;;;4734230;30;20641;-91
2022/01/15 04:40:17;;;;;;;27.33;15.43;;;;;;;;;;4743799;30;20585;-91
2022/01/15 04:43:21;;;;;;;27.10;14.80;;;;;;;;;;4734595;30;20570;-91
2022/01/15 04:46:25;;;;;;;27.90;14.30;;;;;;;;;;4751393;30;20611;-91
2022/01/15 04:49:31;;;;;;;28.03;15.77;;;;;;;;;;4751381;30;20584;-90
2022/01/15 04:52:36;;;;;;;27.87;15.20;;;;;;;;;;4766884;24;20714;-87
2022/01/15 04:55:40;;;;;;;25.77;15.30;;;;;;;;;;4751219;30;20657;-89
2022/01/15 04:58:44;;;;;;;27.50;14.93;;;;;;;;;;4751205;30;20688;-88
2022/01/15 05:01:50;;;;;;;29.63;15.93;;;;;;;;;;4761302;30;20728;-87
2022/01/15 05:04:54;;;;;;;29.20;15.87;;;;;;;;;;4751255;30;20560;-90
2022/01/15 05:07:58;;;;;;;29.90;15.43;;;;;;;;;;4751083;30;20563;-90
2022/01/15 05:11:12;;;;;;;33.43;15.93;;;;;;;;;;4750826;30;20580;-89
2022/01/15 05:14:17;;;;;;;30.13;15.70;;;;;;;;;;4750294;30;20563;-90
2022/01/15 05:17:22;;;;;;;32.37;14.97;;;;;;;;;;4741079;30;20631;-87
2022/01/15 05:20:26;;;;;;;32.23;16.93;;;;;;;;;;4760868;30;20607;-90
2022/01/15 05:23:31;;;;;;;33.53;17.07;;;;;;;;;;4750521;30;20579;-88
2022/01/15 05:26:35;;;;;;;32.47;16.03;;;;;;;;;;4750570;30;20560;-89
2022/01/15 05:29:39;;;;;;;37.97;18.83;;;;;;;;;;4740671;30;20579;-88
2022/01/15 05:32:43;;;;;;;36.60;17.40;;;;;;;;;;4750353;30;20667;-87
2022/01/15 05:35:47;;;;;;;33.47;17.37;;;;;;;;;;4750600;30;21127;-89
2022/01/15 05:38:51;;;;;;;37.70;16.13;;;;;;;;;;4760466;30;20611;-90
2022/01/15 05:41:56;;;;;;;30.60;15.77;;;;;;;;;;4760501;30;20638;-87
2022/01/15 05:45:00;;;;;;;39.03;17.40;;;;;;;;;;4740751;30;20560;-89
2022/01/15 05:48:34;;;;;;;35.90;18.17;;;;;;;;;;4750141;30;20939;-89
2022/01/15 05:57:00;;;;;;;35.03;17.50;;;;;;;;;;4771836;30;21180;-90
2022/01/15 06:01:29;;;;;;;31.13;16.30;;;;;;;;;;4754675;30;20621;-87
2022/01/15 06:04:41;;;;;;;31.33;17.90;;;;;;;;;;4742727;30;20557;-90
2022/01/15 06:08:13;;;;;;;43.17;18.77;;;;;;;;;;4735860;30;20763;-88
2022/01/15 06:11:33;;;;;;;41.47;18.17;;;;;;;;;;4732352;30;20647;-87
2022/01/15 06:14:38;;;;;;;36.93;18.73;;;;;;;;;;4722200;30;21207;-89
2022/01/15 06:17:43;;;;;;;44.67;19.03;;;;;;;;;;4722731;30;20651;-90
2022/01/15 06:20:47;;;;;;;36.00;18.80;;;;;;;;;;4722350;30;20560;-90
2022/01/15 06:23:51;;;;;;;36.10;17.10;;;;;;;;;;4739014;30;20616;-90
2022/01/15 06:26:56;;;;;;;41.43;19.77;;;;;;;;;;4722032;30;20587;-90
2022/01/15 06:30:00;;;;;;;46.53;19.50;;;;;;;;;;4732357;30;20556;-90
2022/01/15 06:33:04;;;;;;;50.43;21.30;;;;;;;;;;4743602;30;20641;-91
2022/01/15 06:36:08;;;;;;;39.40;18.50;;;;;;;;;;4726209;30;20556;-90
2022/01/15 06:39:13;;;;;;;47.23;20.67;;;;;;;;;;4732225;30;20615;-90
2022/01/15 06:42:18;;;;;;;52.73;21.83;;;;;;;;;;4721806;30;20647;-90
2022/01/15 06:45:27;;;;;;;41.87;19.97;;;;;;;;;;4751504;30;20573;-90
2022/01/15 06:48:31;;;;;;;46.20;20.53;;;;;;;;;;4752122;30;20615;-90
2022/01/15 06:51:35;;;;;;;53.87;22.30;;;;;;;;;;4735580;30;20672;-90
2022/01/15 06:54:40;;;;;;;47.70;19.37;;;;;;;;;;4731924;30;20582;-90
2022/01/15 06:57:44;;;;;;;50.33;22.77;;;;;;;;;;4731365;30;20671;-90
2022/01/15 07:00:48;;;;;;;60.70;23.90;;;;;;;;;;4731870;30;20930;-89
2022/01/15 07:03:52;;;;;;;62.57;23.90;;;;;;;;;;4731713;30;20575;-90
2022/01/15 07:06:56;;;;;;;46.03;23.03;;;;;;;;;;4731722;30;20697;-90
2022/01/15 07:10:01;;;;;;;50.00;22.10;;;;;;;;;;4731510;30;20938;-90
2022/01/15 07:13:06;;;;;;;49.33;22.00;;;;;;;;;;4731460;30;20655;-89
2022/01/15 07:16:10;;;;;;;51.77;20.13;;;;;;;;;;4731938;30;20619;-89
2022/01/15 07:19:15;;;;;;;56.60;21.80;;;;;;;;;;4731517;30;20676;-89
2022/01/15 07:22:19;;;;;;;55.43;21.50;;;;;;;;;;4731272;30;20643;-89
2022/01/15 07:25:23;;;;;;;46.50;20.93;;;;;;;;;;4741702;30;20913;-91
2022/01/15 07:28:29;;;;;;;55.97;22.90;;;;;;;;;;4731664;30;20560;-90
2022/01/15 07:31:34;;;;;;;48.03;21.20;;;;;;;;;;4731780;30;20647;-90
2022/01/15 07:34:38;;;;;;;56.17;23.20;;;;;;;;;;4741612;30;20581;-90
2022/01/15 07:37:42;;;;;;;58.77;24.73;;;;;;;;;;4734334;30;20560;-90
2022/01/15 07:40:48;;;;;;;63.20;22.37;;;;;;;;;;4734452;30;20596;-89
2022/01/15 07:43:52;;;;;;;51.03;21.73;;;;;;;;;;4744676;30;20580;-90
2022/01/15 07:46:56;;;;;;;58.37;22.30;;;;;;;;;;4734585;30;20938;-90
2022/01/15 07:50:01;;;;;;;46.47;20.90;;;;;;;;;;4734466;30;20629;-90
2022/01/15 07:53:05;;;;;;;58.00;23.07;;;;;;;;;;4734460;30;20655;-89
2022/01/15 07:56:09;;;;;;;57.33;23.93;;;;;;;;;;4734237;30;21187;-89
2022/01/15 07:59:13;;;;;;;53.30;24.20;;;;;;;;;;4734179;30;20678;-89
2022/01/15 08:02:17;;;;;;;50.23;21.77;;;;;;;;;;4734336;30;20632;-88
2022/01/15 08:05:21;;;;;;;62.47;24.10;;;;;;;;;;4735286;30;20566;-84
2022/01/15 08:08:26;;;;;;;80.60;24.53;;;;;;;;;;4742012;30;20628;-84
2022/01/15 08:11:30;;;;;;;53.23;22.07;;;;;;;;;;4759664;30;22749;-85
2022/01/15 08:14:34;;;;;;;60.53;22.70;;;;;;;;;;4725201;30;20583;-84
2022/01/15 08:17:38;;;;;;;73.57;24.50;;;;;;;;;;4745088;30;20931;-84
2022/01/15 08:20:43;;;;;;;53.33;22.10;;;;;;;;;;4734813;30;20558;-85
2022/01/15 08:23:47;;;;;;;66.70;24.27;;;;;;;;;;4733941;30;20584;-85
2022/01/15 08:26:52;;;;;;;66.13;23.67;;;;;;;;;;4733953;30;20572;-85
2022/01/15 08:29:56;;;;;;;52.43;22.27;;;;;;;;;;4742244;30;20597;-84
2022/01/15 08:33:00;;;;;;;52.93;19.30;;;;;;;;;;4752334;30;20650;-84
2022/01/15 08:36:04;;;;;;;57.17;23.47;;;;;;;;;;4751685;30;20585;-85
2022/01/15 08:39:09;;;;;;;60.10;24.17;;;;;;;;;;4725240;30;20604;-85
2022/01/15 08:42:14;;;;;;;54.67;22.63;;;;;;;;;;4744495;30;20636;-81
2022/01/15 08:45:18;;;;;;;66.67;24.53;;;;;;;;;;4744647;30;20574;-82
2022/01/15 08:48:22;;;;;;;48.67;21.77;;;;;;;;;;4743799;30;20617;-83
2022/01/15 08:51:29;;;;;;;47.23;22.90;;;;;;;;;;4744066;30;20655;-82
2022/01/15 08:54:33;;;;;;;44.77;20.40;;;;;;;;;;4738458;30;20649;-82
2022/01/15 08:57:38;;;;;;;45.47;21.97;;;;;;;;;;4744414;30;20580;-82
2022/01/15 09:00:42;;;;;;;50.63;22.47;;;;;;;;;;4761837;30;20564;-82
2022/01/15 09:03:46;;;;;;;43.90;21.07;;;;;;;;;;4749057;30;20964;-85
2022/01/15 09:06:51;;;;;;;62.47;26.37;;;;;;;;;;4751141;30;20958;-85
2022/01/15 09:09:55;;;;;;;56.87;25.37;;;;;;;;;;4751575;30;20583;-84
2022/01/15 09:12:59;;;;;;;52.40;25.63;;;;;;;;;;4750602;30;20634;-86
2022/01/15 09:16:03;;;;;;;54.23;25.57;;;;;;;;;;4733626;30;20586;-85
2022/01/15 09:19:08;;;;;;;34.20;16.07;;;;;;;;;;4733269;30;20640;-86
2022/01/15 09:22:12;;;;;;;38.60;16.93;;;;;;;;;;4733378;30;20643;-82
2022/01/15 09:25:17;;;;;;;43.43;18.50;;;;;;;;;;4744011;30;20584;-83
2022/01/15 09:31:44;;;;;;;34.23;15.73;;;;;;;;;;4743703;30;20644;-84
2022/01/15 09:34:48;;;;;;;28.43;12.57;;;;;;;;;;4724238;30;20598;-84
2022/01/15 09:37:53;;;;;;;16.37;8.20;;;;;;;;;;4743317;30;20968;-83
2022/01/15 09:40:58;;;;;;;22.63;11.63;;;;;;;;;;4743728;30;20566;-82
2022/01/15 09:44:03;;;;;;;21.90;10.00;;;;;;;;;;4723361;30;20957;-85
2022/01/15 09:47:11;;;;;;;19.57;9.37;;;;;;;;;;4723651;30;20938;-82
2022/01/15 09:50:16;;;;;;;18.20;8.73;;;;;;;;;;4743038;30;20574;-84
2022/01/15 09:53:20;;;;;;;19.80;10.00;;;;;;;;;;4733248;30;20569;-84
2022/01/15 09:56:24;;;;;;;17.03;8.43;;;;;;;;;;4723398;30;20926;-84
2022/01/15 09:59:28;;;;;;;15.93;8.60;;;;;;;;;;4753434;30;20676;-84
2022/01/15 10:02:33;;;;;;;14.50;7.70;;;;;;;;;;4743572;30;20628;-84
2022/01/15 10:05:37;;;;;;;13.33;7.90;;;;;;;;;;4732695;30;20951;-84
2022/01/15 10:08:58;;;;;;;12.80;8.47;;;;;;;;;;4743069;30;21176;-85
2022/01/15 10:12:02;;;;;;;13.70;7.80;;;;;;;;;;4742909;30;20991;-85
2022/01/15 10:15:07;;;;;;;18.00;9.43;;;;;;;;;;4732582;30;20570;-85
2022/01/15 10:18:19;;;;;;;19.90;9.93;;;;;;;;;;4732270;30;20911;-85
2022/01/15 10:21:26;;;;;;;17.10;9.13;;;;;;;;;;4723697;30;20652;-85
2022/01/15 10:24:30;;;;;;;17.83;8.87;;;;;;;;;;4732546;30;20574;-84
2022/01/15 10:27:36;;;;;;;17.93;9.43;;;;;;;;;;4733099;30;20918;-85
2022/01/15 10:30:44;;;;;;;20.27;10.40;;;;;;;;;;4732643;30;20569;-84
2022/01/15 10:33:48;;;;;;;24.10;11.07;;;;;;;;;;4750838;30;20604;-86
2022/01/15 10:37:05;;;;;;;27.43;12.03;;;;;;;;;;4721858;30;20619;-86
2022/01/15 10:40:11;;;;;;;26.33;11.77;;;;;;;;;;4721900;30;20626;-86
2022/01/15 10:43:18;;;;;;;24.40;10.70;;;;;;;;;;4738622;30;20628;-85
2022/01/15 10:46:36;;;;;;;24.73;10.40;;;;;;;;;;4749193;30;20587;-85
2022/01/15 10:49:41;;;;;;;22.07;10.47;;;;;;;;;;4749429;30;20619;-84
2022/01/15 10:52:45;;;;;;;24.10;11.30;;;;;;;;;;4780827;24;20705;-85
2022/01/15 10:55:51;;;;;;;19.93;10.33;;;;;;;;;;4758941;30;20567;-87
2022/01/15 10:59:10;;;;;;;17.40;9.50;;;;;;;;;;4773874;30;20610;-86
2022/01/15 11:02:18;;;;;;;16.53;8.10;;;;;;;;;;4752565;30;20640;-86
2022/01/15 11:05:36;;;;;;;17.70;8.43;;;;;;;;;;4750298;30;20612;-86
2022/01/15 11:08:43;;;;;;;18.20;8.20;;;;;;;;;;4762310;30;20628;-87
2022/01/15 11:11:55;;;;;;;15.90;7.93;;;;;;;;;;4761184;30;21215;-89
2022/01/15 11:15:00;;;;;;;17.73;8.50;;;;;;;;;;4745528;30;20573;-89
2022/01/15 11:18:04;;;;;;;15.83;7.80;;;;;;;;;;4725354;30;20962;-89
2022/01/15 11:21:10;;;;;;;16.50;7.77;;;;;;;;;;4725552;30;20632;-89
2022/01/15 11:24:17;;;;;;;17.00;8.77;;;;;;;;;;4725470;30;20581;-88
2022/01/15 11:27:29;;;;;;;17.60;7.83;;;;;;;;;;4734996;30;21160;-89
2022/01/15 11:30:34;;;;;;;13.97;7.03;;;;;;;;;;4725847;30;20609;-88
2022/01/15 11:33:45;;;;;;;16.67;7.67;;;;;;;;;;4745786;30;20549;-88
2022/01/15 11:36:49;;;;;;;18.83;8.57;;;;;;;;;;4735609;30;20573;-91
2022/01/15 11:39:55;;;;;;;22.83;9.30;;;;;;;;;;4725286;30;20613;-90
2022/01/15 11:43:25;;;;;;;24.30;8.57;;;;;;;;;;4735605;30;20636;-90
2022/01/15 11:46:33;;;;;;;20.03;8.97;;;;;;;;;;4735470;30;21108;-86
2022/01/15 11:49:41;;;;;;;18.40;8.03;;;;;;;;;;4745679;30;20545;-90
2022/01/15 11:52:45;;;;;;;22.23;9.53;;;;;;;;;;4771567;30;20659;-87
2022/01/15 11:56:18;;;;;;;30.77;11.43;;;;;;;;;;4762489;30;20568;-89
2022/01/15 11:59:25;;;;;;;21.37;9.20;;;;;;;;;;4753015;30;20604;-90
2022/01/15 12:02:41;;;;;;;27.67;10.87;;;;;;;;;;4752864;30;20631;-90
2022/01/15 12:05:47;;;;;;;24.07;10.40;;;;;;;;;;4762259;30;20579;-90
2022/01/15 12:08:51;;;;;;;25.23;10.73;;;;;;;;;;4752323;30;20565;-88
2022/01/15 12:11:55;;;;;;;24.57;11.60;;;;;;;;;;4742280;30;21005;-88
2022/01/15 12:15:01;;;;;;;21.00;10.13;;;;;;;;;;4760757;30;20638;-90
2022/01/15 12:18:19;;;;;;;21.10;9.80;;;;;;;;;;4752255;30;20556;-88
2022/01/15 12:21:46;;;;;;;22.33;10.37;;;;;;;;;;4742045;30;20672;-90
2022/01/15 12:24:52;;;;;;;17.70;8.93;;;;;;;;;;4761865;30;20961;-89
2022/01/15 12:28:06;;;;;;;26.40;11.33;;;;;;;;;;4772532;30;20568;-89
2022/01/15 12:31:10;;;;;;;24.73;11.63;;;;;;;;;;4741801;30;21139;-88
2022/01/15 12:34:24;;;;;;;28.07;11.33;;;;;;;;;;4751976;30;20572;-90
2022/01/15 12:37:28;;;;;;;28.67;12.70;;;;;;;;;;4761909;30;20618;-88
2022/01/15 12:40:48;;;;;;;32.20;13.87;;;;;;;;;;4746291;30;20648;-89
2022/01/15 12:43:53;;;;;;;30.47;13.43;;;;;;;;;;4734199;30;20584;-90
2022/01/15 12:46:58;;;;;;;34.87;15.60;;;;;;;;;;4734389;30;20588;-88
2022/01/15 12:50:02;;;;;;;77.63;27.27;;;;;;;;;;4744264;30;20560;-90
2022/01/15 12:53:06;;;;;;;70.53;24.13;;;;;;;;;;4743648;30;20659;-88
2022/01/15 12:56:13;;;;;;;34.27;14.70;;;;;;;;;;4744021;30;20565;-89
2022/01/15 12:59:26;;;;;;;23.33;10.53;;;;;;;;;;4733973;30;20584;-87
2022/01/15 13:02:30;;;;;;;28.33;12.83;;;;;;;;;;4733719;30;20640;-88
2022/01/15 13:05:37;;;;;;;24.50;10.80;;;;;;;;;;4733637;30;20566;-88
2022/01/15 13:08:44;;;;;;;23.80;12.57;;;;;;;;;;4733792;30;20560;-88
2022/01/15 13:11:59;;;;;;;30.00;12.60;;;;;;;;;;4743637;30;20984;-88
2022/01/15 13:15:03;;;;;;;20.93;10.80;;;;;;;;;;4743794;30;20586;-88
2022/01/15 13:18:13;;;;;;;24.50;12.77;;;;;;;;;;4733532;30;20570;-88
2022/01/15 13:21:23;;;;;;;28.47;13.97;;;;;;;;;;4733135;30;20666;-88
2022/01/15 13:24:26;;;;;;;25.93;13.07;;;;;;;;;;4733267;30;20639;-90
2022/01/15 13:27:32;;;;;;;27.63;14.20;;;;;;;;;;4743268;30;20556;-87
2022/01/15 13:30:37;;;;;;;28.57;13.77;;;;;;;;;;4736643;30;20607;-91
2022/01/15 13:33:44;;;;;;;26.33;12.87;;;;;;;;;;4740696;30;20585;-89
2022/01/15 13:36:48;;;;;;;32.97;15.50;;;;;;;;;;4742269;30;20560;-89
2022/01/15 13:39:52;;;;;;;30.33;13.83;;;;;;;;;;4740306;30;21254;-90
2022/01/15 13:42:56;;;;;;;33.43;14.73;;;;;;;;;;4750373;30;20668;-89
2022/01/15 13:46:10;;;;;;;32.67;13.80;;;;;;;;;;4751187;30;20585;-88
2022/01/15 13:49:20;;;;;;;28.20;13.77;;;;;;;;;;4750771;30;20564;-89
2022/01/15 13:55:52;;;;;;;32.27;14.30;;;;;;;;;;4758327;30;20610;-91
2022/01/15 13:59:01;;;;;;;32.17;14.63;;;;;;;;;;4742742;30;20580;-91
2022/01/15 14:02:06;;;;;;;35.20;14.83;;;;;;;;;;4732741;30;20633;-90
2022/01/15 14:05:20;;;;;;;34.37;14.23;;;;;;;;;;4732397;30;20930;-90
2022/01/15 14:08:25;;;;;;;32.93;15.03;;;;;;;;;;4733031;30;21101;-88
2022/01/15 14:11:29;;;;;;;31.10;14.70;;;;;;;;;;4733365;30;20640;-91
2022/01/15 14:14:54;;;;;;;33.03;14.50;;;;;;;;;;4742863;30;20567;-88
2022/01/15 14:18:07;;;;;;;28.57;13.60;;;;;;;;;;4742914;30;20555;-89
2022/01/15 14:21:38;;;;;;;33.10;14.97;;;;;;;;;;4732334;30;21030;-89
2022/01/15 14:24:43;;;;;;;33.63;14.47;;;;;;;;;;4750545;30;20557;-89
2022/01/15 14:28:12;;;;;;;39.73;16.73;;;;;;;;;;4742593;30;20628;-89
2022/01/15 14:31:18;;;;;;;35.97;14.30;;;;;;;;;;4751779;30;20563;-90
2022/01/15 14:34:24;;;;;;;33.63;15.93;;;;;;;;;;4751770;30;20949;-88
2022/01/15 14:37:33;;;;;;;29.93;14.20;;;;;;;;;;4753082;30;20630;-91
2022/01/15 14:40:37;;;;;;;33.70;15.47;;;;;;;;;;4732013;30;20676;-91
2022/01/15 14:43:41;;;;;;;31.80;14.07;;;;;;;;;;4740025;30;20933;-90
2022/01/15 14:46:46;;;;;;;30.60;13.00;;;;;;;;;;4739521;30;20580;-90
2022/01/15 14:49:50;;;;;;;29.83;13.33;;;;;;;;;;4739991;30;20566;-89
2022/01/15 14:52:55;;;;;;;31.03;13.80;;;;;;;;;;4749720;30;20655;-90
2022/01/15 14:56:00;;;;;;;31.40;13.20;;;;;;;;;;4739875;30;20928;-89
2022/01/15 14:59:05;;;;;;;32.47;15.00;;;;;;;;;;4760151;30;20568;-90
2022/01/15 15:02:09;;;;;;;32.73;14.03;;;;;;;;;;4759237;30;20674;-90
2022/01/15 15:05:13;;;;;;;27.37;12.80;;;;;;;;;;4750212;30;20622;-89
2022/01/15 15:08:18;;;;;;;35.23;13.97;;;;;;;;;;4739740;30;20564;-90
2022/01/15 15:11:22;;;;;;;38.13;15.00;;;;;;;;;;4749581;30;20654;-90
2022/01/15 15:14:29;;;;;;;33.17;14.63;;;;;;;;;;4759765;30;20619;-91
2022/01/15 15:17:34;;;;;;;29.10;12.83;;;;;;;;;;4739507;30;20627;-90
2022/01/15 15:20:38;;;;;;;26.70;12.33;;;;;;;;;;4740080;30;20642;-91
2022/01/15 15:23:43;;;;;;;26.83;12.93;;;;;;;;;;4733426;30;20590;-91
2022/01/15 15:26:47;;;;;;;30.87;13.13;;;;;;;;;;4730434;30;20620;-90
2022/01/15 15:29:51;;;;;;;24.50;12.37;;;;;;;;;;4722779;30;20569;-89
2022/01/15 15:32:55;;;;;;;27.60;12.90;;;;;;;;;;4723381;30;20644;-89
2022/01/15 15:36:02;;;;;;;21.47;11.53;;;;;;;;;;4734395;30;20560;-91
2022/01/15 15:39:07;;;;;;;22.60;11.40;;;;;;;;;;4723669;30;20628;-90
2022/01/15 15:42:12;;;;;;;24.13;11.63;;;;;;;;;;4731665;30;20758;-90
2022/01/15 15:45:16;;;;;;;32.97;14.03;;;;;;;;;;4732262;30;21109;-90
2022/01/15 15:48:20;;;;;;;32.90;14.63;;;;;;;;;;4721919;30;20588;-90
2022/01/15 15:51:25;;;;;;;30.90;15.73;;;;;;;;;;4721794;30;20647;-90
2022/01/15 15:54:29;;;;;;;37.97;16.23;;;;;;;;;;4732032;30;20564;-90
2022/01/15 15:57:38;;;;;;;36.07;15.67;;;;;;;;;;4722912;30;20561;-90
2022/01/15 16:00:45;;;;;;;35.67;17.10;;;;;;;;;;4724991;30;20761;-89
2022/01/15 16:03:50;;;;;;;43.53;17.37;;;;;;;;;;4734725;30;20559;-90
2022/01/15 16:06:54;;;;;;;37.97;17.13;;;;;;;;;;4734870;30;20585;-90
2022/01/15 16:09:58;;;;;;;46.67;17.20;;;;;;;;;;4724472;30;20941;-89
2022/01/15 16:13:03;;;;;;;43.13;14.73;;;;;;;;;;4730119;30;20670;-90
2022/01/15 16:16:08;;;;;;;48.93;17.07;;;;;;;;;;4742481;30;20948;-90
2022/01/15 16:19:12;;;;;;;56.07;18.53;;;;;;;;;;4742318;30;20564;-90
2022/01/15 16:22:16;;;;;;;75.13;24.50;;;;;;;;;;4742360;30;20679;-90
2022/01/15 16:25:21;;;;;;;77.50;20.93;;;;;;;;;;4762788;30;20592;-89
2022/01/15 16:28:25;;;;;;;66.80;22.40;;;;;;;;;;4753523;30;20630;-90
2022/01/15 16:31:30;;;;;;;67.07;23.33;;;;;;;;;;4751882;30;20639;-90
2022/01/15 16:34:34;;;;;;;68.37;21.10;;;;;;;;;;4761750;30;20945;-90
2022/01/15 16:37:38;;;;;;;68.63;21.13;;;;;;;;;;4760650;30;20591;-90
2022/01/15 16:40:43;;;;;;;62.53;23.87;;;;;;;;;;4734121;30;21038;-90
2022/01/15 16:43:47;;;;;;;46.93;18.23;;;;;;;;;;4733900;30;20584;-90
2022/01/15 16:46:51;;;;;;;88.87;37.13;;;;;;;;;;4740796;30;20615;-90
2022/01/15 16:49:55;;;;;;;86.67;35.77;;;;;;;;;;4741785;30;21113;-90
2022/01/15 16:52:59;;;;;;;61.60;26.50;;;;;;;;;;4784122;25;20697;-90
2022/01/15 16:56:03;;;;;;;106.40;21.63;;;;;;;;;;4750526;30;20643;-90
2022/01/15 16:59:08;;;;;;;82.67;26.77;;;;;;;;;;4747102;30;20614;-90
2022/01/15 17:02:13;;;;;;;54.83;24.70;;;;;;;;;;4747950;30;20700;-90
2022/01/15 17:05:19;;;;;;;55.13;26.33;;;;;;;;;;4751417;30;20558;-90
2022/01/15 17:08:28;;;;;;;52.23;21.13;;;;;;;;;;4750923;30;20638;-89
2022/01/15 17:11:36;;;;;;;49.87;20.97;;;;;;;;;;4741355;30;20569;-91
2022/01/15 17:14:40;;;;;;;68.83;24.23;;;;;;;;;;4751200;30;20577;-89
2022/01/15 17:17:44;;;;;;;90.13;25.43;;;;;;;;;;4723421;30;20558;-90
2022/01/15 17:20:48;;;;;;;61.57;20.17;;;;;;;;;;4733205;30;20581;-89
2022/01/15 17:23:52;;;;;;;94.10;25.10;;;;;;;;;;4733274;30;20568;-89
2022/01/15 17:26:56;;;;;;;94.60;25.10;;;;;;;;;;4733185;30;20635;-89
2022/01/15 17:30:07;;;;;;;49.53;21.13;;;;;;;;;;4743289;30;20572;-90
2022/01/15 17:33:12;;;;;;;60.03;18.97;;;;;;;;;;4733000;30;20636;-90
2022/01/15 17:36:16;;;;;;;68.23;19.57;;;;;;;;;;4723320;30;20562;-90
2022/01/15 17:39:25;;;;;;;69.87;21.27;;;;;;;;;;4733371;30;20565;-90
2022/01/15 17:42:29;;;;;;;58.53;19.77;;;;;;;;;;4732669;30;20692;-87
2022/01/15 17:45:33;;;;;;;55.13;18.43;;;;;;;;;;4747450;30;20615;-90
2022/01/15 17:48:39;;;;;;;62.17;21.30;;;;;;;;;;4741143;30;20633;-88
2022/01/15 17:51:43;;;;;;;59.80;20.00;;;;;;;;;;4750315;30;20643;-89
2022/01/15 17:54:47;;;;;;;88.40;22.13;;;;;;;;;;4761605;30;20573;-90
2022/01/15 17:57:51;;;;;;;96.17;26.10;;;;;;;;;;4760765;30;20580;-89
2022/01/15 18:00:56;;;;;;;48.70;21.33;;;;;;;;;;4750293;30;20553;-89
2022/01/15 18:04:00;;;;;;;50.07;21.30;;;;;;;;;;4750262;30;20580;-90
2022/01/15 18:07:04;;;;;;;88.63;26.27;;;;;;;;;;4750386;30;20564;-90
2022/01/15 18:10:17;;;;;;;46.17;18.67;;;;;;;;;;4750857;30;21009;-89
2022/01/15 18:13:21;;;;;;;57.77;18.40;;;;;;;;;;4760159;30;20635;-89
2022/01/15 18:16:25;;;;;;;54.83;18.53;;;;;;;;;;4750105;30;20632;-89
2022/01/15 18:19:29;;;;;;;75.67;19.67;;;;;;;;;;4740213;30;20628;-89
2022/01/15 18:22:33;;;;;;;69.83;19.80;;;;;;;;;;4740242;30;20675;-89
2022/01/15 18:25:39;;;;;;;46.17;17.37;;;;;;;;;;4740129;30;20577;-89
2022/01/15 18:28:46;;;;;;;49.63;16.87;;;;;;;;;;4740144;30;21139;-89
2022/01/15 18:31:51;;;;;;;43.57;16.43;;;;;;;;;;4739980;30;20642;-89
2022/01/15 18:34:55;;;;;;;35.63;13.83;;;;;;;;;;4750268;30;20585;-89
2022/01/15 18:37:59;;;;;;;53.67;16.47;;;;;;;;;;4724468;30;20554;-89
2022/01/15 18:41:03;;;;;;;45.97;16.33;;;;;;;;;;4763794;30;20971;-90
2022/01/15 18:44:08;;;;;;;40.60;16.37;;;;;;;;;;4744852;30;20928;-91
2022/01/15 18:47:12;;;;;;;50.03;16.97;;;;;;;;;;4722426;30;20565;-90
2022/01/15 18:50:17;;;;;;;34.30;14.83;;;;;;;;;;4732530;30;20588;-90
2022/01/15 18:53:22;;;;;;;35.13;15.13;;;;;;;;;;4732222;30;20647;-89
2022/01/15 18:56:26;;;;;;;42.57;15.33;;;;;;;;;;4732075;30;20578;-90
2022/01/15 18:59:30;;;;;;;42.93;16.10;;;;;;;;;;4732479;30;20937;-90
2022/01/15 19:02:34;;;;;;;49.17;17.83;;;;;;;;;;4732134;30;20679;-89
2022/01/15 19:05:40;;;;;;;53.27;18.10;;;;;;;;;;4733097;30;20584;-89
2022/01/15 19:08:45;;;;;;;47.27;17.43;;;;;;;;;;4742781;30;21099;-89
2022/01/15 19:11:49;;;;;;;46.73;17.60;;;;;;;;;;4740058;30;20639;-90
2022/01/15 19:14:53;;;;;;;55.50;18.97;;;;;;;;;;4749735;30;20569;-90
2022/01/15 19:17:59;;;;;;;42.03;17.90;;;;;;;;;;4739750;30;20560;-89
2022/01/15 19:21:04;;;;;;;50.60;18.90;;;;;;;;;;4749579;30;20561;-91
2022/01/15 19:24:11;;;;;;;44.53;16.73;;;;;;;;;;4749803;30;20541;-90
2022/01/15 19:27:15;;;;;;;34.27;14.83;;;;;;;;;;4739937;30;20559;-90
2022/01/15 19:30:21;;;;;;;32.43;13.83;;;;;;;;;;4739580;30;20557;-90
2022/01/15 19:33:25;;;;;;;39.67;15.13;;;;;;;;;;4751998;30;20659;-90